sensor_id;sensor_type;location;lat;lon;timestamp;P1;durP1;ratioP1;P2;durP2;ratioP2
41984;SDS011;28319;48.116;10.818;2023-04-24T00:04:21;0.47;;;0.47;;
41984;SDS011;28319;48.116;10.818;2023-04-24T00:09:27;0.60;;;0.60;;
41984;SDS011;28319;48.116;10.818;2023-04-24T00:14:29;0.60;;;0.60;;
41984;SDS011;28319;48.116;10.818;2023-04-24T00:19:31;0.47;;;0.47;;
41984;SDS011;28319;48.116;10.818;2023-04-24T00:24:34;0.50;;;0.50;;
41984;SDS011;28319;48.116;10.818;2023-04-24T00:29:36;0.97;;;0.70;;
41984;SDS011;28319;48.116;10.818;2023-04-24T00:34:38;0.90;;;0.90;;
41984;SDS011;28319;48.116;10.818;2023-04-24T00:39:42;0.37;;;0.37;;
41984;SDS011;28319;48.116;10.818;2023-04-24T00:44:44;1.47;;;0.50;;
41984;SDS011;28319;48.116;10.818;2023-04-24T00:49:46;0.70;;;0.70;;
41984;SDS011;28319;48.116;10.818;2023-04-24T00:54:50;0.40;;;0.40;;
41984;SDS011;28319;48.116;10.818;2023-04-24T00:59:52;0.60;;;0.60;;
41984;SDS011;28319;48.116;10.818;2023-04-24T01:04:54;0.43;;;0.43;;
41984;SDS011;28319;48.116;10.818;2023-04-24T01:09:58;0.30;;;0.30;;
41984;SDS011;28319;48.116;10.818;2023-04-24T01:15:00;0.70;;;0.67;;
41984;SDS011;28319;48.116;10.818;2023-04-24T01:20:04;0.40;;;0.40;;
41984;SDS011;28319;48.116;10.818;2023-04-24T01:25:08;0.67;;;0.67;;
41984;SDS011;28319;48.116;10.818;2023-04-24T01:30:11;0.47;;;0.47;;
41984;SDS011;28319;48.116;10.818;2023-04-24T01:35:14;0.40;;;0.40;;
41984;SDS011;28319;48.116;10.818;2023-04-24T01:40:17;1.80;;;0.50;;
41984;SDS011;28319;48.116;10.818;2023-04-24T01:45:19;0.53;;;0.53;;
41984;SDS011;28319;48.116;10.818;2023-04-24T01:50:21;0.60;;;0.60;;
41984;SDS011;28319;48.116;10.818;2023-04-24T01:55:25;0.70;;;0.70;;
41984;SDS011;28319;48.116;10.818;2023-04-24T02:00:27;0.60;;;0.60;;
41984;SDS011;28319;48.116;10.818;2023-04-24T02:05:29;1.00;;;0.63;;
41984;SDS011;28319;48.116;10.818;2023-04-24T02:10:32;0.43;;;0.43;;
41984;SDS011;28319;48.116;10.818;2023-04-24T02:15:34;0.60;;;0.60;;
41984;SDS011;28319;48.116;10.818;2023-04-24T02:20:36;2.33;;;0.70;;
41984;SDS011;28319;48.116;10.818;2023-04-24T02:25:40;1.60;;;0.60;;
41984;SDS011;28319;48.116;10.818;2023-04-24T02:30:42;0.50;;;0.50;;
41984;SDS011;28319;48.116;10.818;2023-04-24T02:35:44;0.50;;;0.50;;
41984;SDS011;28319;48.116;10.818;2023-04-24T02:40:47;0.33;;;0.33;;
41984;SDS011;28319;48.116;10.818;2023-04-24T02:45:49;1.77;;;0.40;;
41984;SDS011;28319;48.116;10.818;2023-04-24T02:50:51;0.50;;;0.50;;
41984;SDS011;28319;48.116;10.818;2023-04-24T02:55:55;0.40;;;0.40;;
41984;SDS011;28319;48.116;10.818;2023-04-24T03:00:56;0.73;;;0.73;;
41984;SDS011;28319;48.116;10.818;2023-04-24T03:05:58;1.03;;;0.60;;
41984;SDS011;28319;48.116;10.818;2023-04-24T03:11:02;0.50;;;0.50;;
41984;SDS011;28319;48.116;10.818;2023-04-24T03:16:04;0.80;;;0.80;;
41984;SDS011;28319;48.116;10.818;2023-04-24T03:21:06;0.50;;;0.50;;
41984;SDS011;28319;48.116;10.818;2023-04-24T03:26:10;0.57;;;0.57;;
41984;SDS011;28319;48.116;10.818;2023-04-24T03:31:12;0.40;;;0.40;;
41984;SDS011;28319;48.116;10.818;2023-04-24T03:36:15;0.40;;;0.40;;
41984;SDS011;28319;48.116;10.818;2023-04-24T03:41:19;0.50;;;0.50;;
41984;SDS011;28319;48.116;10.818;2023-04-24T03:46:22;0.50;;;0.50;;
41984;SDS011;28319;48.116;10.818;2023-04-24T03:51:24;0.70;;;0.70;;
41984;SDS011;28319;48.116;10.818;2023-04-24T03:56:29;0.40;;;0.40;;
41984;SDS011;28319;48.116;10.818;2023-04-24T04:01:31;0.50;;;0.50;;
41984;SDS011;28319;48.116;10.818;2023-04-24T04:06:36;0.50;;;0.50;;
41984;SDS011;28319;48.116;10.818;2023-04-24T04:11:40;0.60;;;0.60;;
41984;SDS011;28319;48.116;10.818;2023-04-24T04:16:42;0.50;;;0.50;;
41984;SDS011;28319;48.116;10.818;2023-04-24T04:21:44;0.87;;;0.60;;
41984;SDS011;28319;48.116;10.818;2023-04-24T04:26:52;0.60;;;0.57;;
41984;SDS011;28319;48.116;10.818;2023-04-24T04:31:56;0.40;;;0.40;;
41984;SDS011;28319;48.116;10.818;2023-04-24T04:36:58;1.33;;;0.60;;
41984;SDS011;28319;48.116;10.818;2023-04-24T04:42:02;0.30;;;0.30;;
41984;SDS011;28319;48.116;10.818;2023-04-24T04:47:04;0.40;;;0.40;;
41984;SDS011;28319;48.116;10.818;2023-04-24T04:52:07;0.53;;;0.53;;
41984;SDS011;28319;48.116;10.818;2023-04-24T04:57:11;0.73;;;0.63;;
41984;SDS011;28319;48.116;10.818;2023-04-24T05:02:13;0.60;;;0.60;;
41984;SDS011;28319;48.116;10.818;2023-04-24T05:07:15;1.80;;;0.40;;
41984;SDS011;28319;48.116;10.818;2023-04-24T05:12:19;0.50;;;0.50;;
41984;SDS011;28319;48.116;10.818;2023-04-24T05:17:21;0.37;;;0.30;;
41984;SDS011;28319;48.116;10.818;2023-04-24T05:22:23;0.73;;;0.50;;
41984;SDS011;28319;48.116;10.818;2023-04-24T05:27:27;0.40;;;0.40;;
41984;SDS011;28319;48.116;10.818;2023-04-24T05:32:29;0.20;;;0.20;;
41984;SDS011;28319;48.116;10.818;2023-04-24T05:37:31;0.20;;;0.20;;
41984;SDS011;28319;48.116;10.818;2023-04-24T05:42:34;0.30;;;0.30;;
41984;SDS011;28319;48.116;10.818;2023-04-24T05:47:36;0.70;;;0.50;;
41984;SDS011;28319;48.116;10.818;2023-04-24T05:52:38;0.97;;;0.30;;
41984;SDS011;28319;48.116;10.818;2023-04-24T05:57:42;0.50;;;0.50;;
41984;SDS011;28319;48.116;10.818;2023-04-24T06:02:44;0.47;;;0.47;;
41984;SDS011;28319;48.116;10.818;2023-04-24T06:07:46;0.50;;;0.50;;
41984;SDS011;28319;48.116;10.818;2023-04-24T06:12:50;0.67;;;0.67;;
41984;SDS011;28319;48.116;10.818;2023-04-24T06:17:52;0.80;;;0.80;;
41984;SDS011;28319;48.116;10.818;2023-04-24T06:22:54;0.53;;;0.27;;
41984;SDS011;28319;48.116;10.818;2023-04-24T06:27:58;0.20;;;0.20;;
41984;SDS011;28319;48.116;10.818;2023-04-24T06:33:00;0.37;;;0.37;;
41984;SDS011;28319;48.116;10.818;2023-04-24T06:38:02;1.23;;;0.40;;
41984;SDS011;28319;48.116;10.818;2023-04-24T06:43:05;0.50;;;0.30;;
41984;SDS011;28319;48.116;10.818;2023-04-24T06:48:07;3.40;;;2.10;;
41984;SDS011;28319;48.116;10.818;2023-04-24T06:53:09;3.60;;;2.80;;
41984;SDS011;28319;48.116;10.818;2023-04-24T06:58:14;0.50;;;0.50;;
41984;SDS011;28319;48.116;10.818;2023-04-24T07:03:16;0.77;;;0.77;;
41984;SDS011;28319;48.116;10.818;2023-04-24T07:08:18;0.50;;;0.50;;
41984;SDS011;28319;48.116;10.818;2023-04-24T07:13:22;0.37;;;0.37;;
41984;SDS011;28319;48.116;10.818;2023-04-24T07:18:24;0.40;;;0.40;;
41984;SDS011;28319;48.116;10.818;2023-04-24T07:23:26;0.30;;;0.30;;
41984;SDS011;28319;48.116;10.818;2023-04-24T07:28:29;0.20;;;0.20;;
41984;SDS011;28319;48.116;10.818;2023-04-24T07:33:32;0.30;;;0.20;;
41984;SDS011;28319;48.116;10.818;2023-04-24T07:38:34;0.70;;;0.70;;
41984;SDS011;28319;48.116;10.818;2023-04-24T07:43:37;1.10;;;1.10;;
41984;SDS011;28319;48.116;10.818;2023-04-24T07:48:39;2.07;;;0.80;;
41984;SDS011;28319;48.116;10.818;2023-04-24T07:53:41;1.20;;;1.10;;
41984;SDS011;28319;48.116;10.818;2023-04-24T07:58:45;1.30;;;1.20;;
41984;SDS011;28319;48.116;10.818;2023-04-24T08:03:47;1.60;;;1.13;;
41984;SDS011;28319;48.116;10.818;2023-04-24T08:08:49;1.40;;;1.30;;
41984;SDS011;28319;48.116;10.818;2023-04-24T08:13:53;3.17;;;2.60;;
41984;SDS011;28319;48.116;10.818;2023-04-24T08:18:55;1.37;;;1.27;;
41984;SDS011;28319;48.116;10.818;2023-04-24T08:23:57;1.70;;;1.60;;
41984;SDS011;28319;48.116;10.818;2023-04-24T08:29:01;1.00;;;1.00;;
41984;SDS011;28319;48.116;10.818;2023-04-24T08:34:03;1.43;;;1.30;;
41984;SDS011;28319;48.116;10.818;2023-04-24T08:39:05;1.50;;;1.40;;
41984;SDS011;28319;48.116;10.818;2023-04-24T08:44:08;1.50;;;1.30;;
41984;SDS011;28319;48.116;10.818;2023-04-24T08:49:11;1.60;;;1.50;;
41984;SDS011;28319;48.116;10.818;2023-04-24T08:54:16;1.30;;;1.20;;
41984;SDS011;28319;48.116;10.818;2023-04-24T08:59:20;1.47;;;1.20;;
41984;SDS011;28319;48.116;10.818;2023-04-24T09:04:23;1.43;;;1.33;;
41984;SDS011;28319;48.116;10.818;2023-04-24T09:09:26;0.93;;;0.93;;
41984;SDS011;28319;48.116;10.818;2023-04-24T09:14:33;1.20;;;1.20;;
41984;SDS011;28319;48.116;10.818;2023-04-24T09:19:36;1.70;;;1.60;;
41984;SDS011;28319;48.116;10.818;2023-04-24T09:24:38;1.60;;;1.50;;
41984;SDS011;28319;48.116;10.818;2023-04-24T09:29:49;1.50;;;1.40;;
41984;SDS011;28319;48.116;10.818;2023-04-24T09:35:11;1.80;;;1.00;;
41984;SDS011;28319;48.116;10.818;2023-04-24T09:40:15;0.90;;;0.90;;
41984;SDS011;28319;48.116;10.818;2023-04-24T09:45:20;1.20;;;1.10;;
41984;SDS011;28319;48.116;10.818;2023-04-24T09:50:22;1.13;;;1.10;;
41984;SDS011;28319;48.116;10.818;2023-04-24T09:55:24;0.80;;;0.80;;
41984;SDS011;28319;48.116;10.818;2023-04-24T10:00:29;2.07;;;0.97;;
41984;SDS011;28319;48.116;10.818;2023-04-24T10:05:32;1.23;;;0.90;;
41984;SDS011;28319;48.116;10.818;2023-04-24T10:10:38;0.90;;;0.90;;
41984;SDS011;28319;48.116;10.818;2023-04-24T10:15:43;1.10;;;1.10;;
41984;SDS011;28319;48.116;10.818;2023-04-24T10:20:45;0.87;;;0.87;;
41984;SDS011;28319;48.116;10.818;2023-04-24T10:25:47;0.50;;;0.50;;
41984;SDS011;28319;48.116;10.818;2023-04-24T10:30:52;1.57;;;0.87;;
41984;SDS011;28319;48.116;10.818;2023-04-24T10:35:56;0.67;;;0.67;;
41984;SDS011;28319;48.116;10.818;2023-04-24T10:41:06;0.90;;;0.90;;
41984;SDS011;28319;48.116;10.818;2023-04-24T10:46:11;0.90;;;0.90;;
41984;SDS011;28319;48.116;10.818;2023-04-24T10:51:21;1.33;;;1.10;;
41984;SDS011;28319;48.116;10.818;2023-04-24T10:56:24;0.97;;;0.97;;
41984;SDS011;28319;48.116;10.818;2023-04-24T11:01:29;2.63;;;1.10;;
41984;SDS011;28319;48.116;10.818;2023-04-24T11:06:33;1.40;;;1.27;;
41984;SDS011;28319;48.116;10.818;2023-04-24T11:11:36;1.30;;;1.07;;
41984;SDS011;28319;48.116;10.818;2023-04-24T11:16:45;1.10;;;1.10;;
41984;SDS011;28319;48.116;10.818;2023-04-24T11:21:57;2.20;;;1.20;;
41984;SDS011;28319;48.116;10.818;2023-04-24T11:27:05;1.27;;;1.13;;
41984;SDS011;28319;48.116;10.818;2023-04-24T11:32:23;1.17;;;1.13;;
41984;SDS011;28319;48.116;10.818;2023-04-24T11:37:27;3.03;;;1.27;;
41984;SDS011;28319;48.116;10.818;2023-04-24T11:42:34;1.00;;;1.00;;
41984;SDS011;28319;48.116;10.818;2023-04-24T11:47:38;2.60;;;1.30;;
41984;SDS011;28319;48.116;10.818;2023-04-24T11:52:41;2.53;;;1.60;;
41984;SDS011;28319;48.116;10.818;2023-04-24T11:57:44;1.03;;;0.93;;
41984;SDS011;28319;48.116;10.818;2023-04-24T12:02:49;1.07;;;1.00;;
41984;SDS011;28319;48.116;10.818;2023-04-24T12:07:51;1.37;;;1.03;;
41984;SDS011;28319;48.116;10.818;2023-04-24T12:12:55;0.80;;;0.80;;
41984;SDS011;28319;48.116;10.818;2023-04-24T12:17:59;1.10;;;1.00;;
41984;SDS011;28319;48.116;10.818;2023-04-24T12:23:01;2.60;;;1.20;;
41984;SDS011;28319;48.116;10.818;2023-04-24T12:28:10;1.27;;;1.17;;
41984;SDS011;28319;48.116;10.818;2023-04-24T12:33:16;0.97;;;0.90;;
41984;SDS011;28319;48.116;10.818;2023-04-24T12:38:21;3.50;;;1.50;;
41984;SDS011;28319;48.116;10.818;2023-04-24T12:43:24;1.20;;;1.20;;
41984;SDS011;28319;48.116;10.818;2023-04-24T12:48:29;2.97;;;1.27;;
41984;SDS011;28319;48.116;10.818;2023-04-24T12:53:32;2.07;;;1.03;;
41984;SDS011;28319;48.116;10.818;2023-04-24T12:58:34;0.82;;;0.82;;
41984;SDS011;28319;48.116;10.818;2023-04-24T13:03:37;2.50;;;1.30;;
41984;SDS011;28319;48.116;10.818;2023-04-24T13:08:39;1.70;;;1.30;;
41984;SDS011;28319;48.116;10.818;2023-04-24T13:13:41;1.40;;;1.30;;
41984;SDS011;28319;48.116;10.818;2023-04-24T13:18:45;1.17;;;1.17;;
41984;SDS011;28319;48.116;10.818;2023-04-24T13:23:47;1.00;;;1.00;;
41984;SDS011;28319;48.116;10.818;2023-04-24T13:28:49;1.33;;;1.10;;
41984;SDS011;28319;48.116;10.818;2023-04-24T13:33:52;2.50;;;1.37;;
41984;SDS011;28319;48.116;10.818;2023-04-24T13:38:54;1.67;;;1.13;;
41984;SDS011;28319;48.116;10.818;2023-04-24T13:43:56;1.30;;;1.20;;
41984;SDS011;28319;48.116;10.818;2023-04-24T13:48:59;1.67;;;1.10;;
41984;SDS011;28319;48.116;10.818;2023-04-24T13:54:03;2.13;;;1.43;;
41984;SDS011;28319;48.116;10.818;2023-04-24T13:59:05;1.60;;;1.50;;
41984;SDS011;28319;48.116;10.818;2023-04-24T14:04:09;1.50;;;1.40;;
41984;SDS011;28319;48.116;10.818;2023-04-24T14:09:12;2.63;;;1.30;;
41984;SDS011;28319;48.116;10.818;2023-04-24T14:14:14;1.43;;;1.30;;
41984;SDS011;28319;48.116;10.818;2023-04-24T14:19:17;1.10;;;1.10;;
41984;SDS011;28319;48.116;10.818;2023-04-24T14:24:19;1.63;;;1.40;;
41984;SDS011;28319;48.116;10.818;2023-04-24T14:29:21;1.47;;;1.20;;
41984;SDS011;28319;48.116;10.818;2023-04-24T14:34:25;1.17;;;1.17;;
41984;SDS011;28319;48.116;10.818;2023-04-24T14:39:28;2.97;;;1.20;;
41984;SDS011;28319;48.116;10.818;2023-04-24T14:44:30;2.13;;;1.40;;
41984;SDS011;28319;48.116;10.818;2023-04-24T14:49:33;1.30;;;1.20;;
41984;SDS011;28319;48.116;10.818;2023-04-24T14:54:35;1.33;;;1.20;;
41984;SDS011;28319;48.116;10.818;2023-04-24T14:59:37;1.73;;;1.10;;
41984;SDS011;28319;48.116;10.818;2023-04-24T15:04:41;1.63;;;1.17;;
41984;SDS011;28319;48.116;10.818;2023-04-24T15:09:43;2.30;;;1.43;;
41984;SDS011;28319;48.116;10.818;2023-04-24T15:14:47;1.00;;;1.00;;
41984;SDS011;28319;48.116;10.818;2023-04-24T15:19:50;1.00;;;0.90;;
41984;SDS011;28319;48.116;10.818;2023-04-24T15:24:52;0.93;;;0.80;;
41984;SDS011;28319;48.116;10.818;2023-04-24T15:29:54;1.27;;;1.17;;
41984;SDS011;28319;48.116;10.818;2023-04-24T15:35:00;1.10;;;1.00;;
41984;SDS011;28319;48.116;10.818;2023-04-24T15:40:02;1.97;;;0.90;;
41984;SDS011;28319;48.116;10.818;2023-04-24T15:45:07;1.00;;;1.00;;
41984;SDS011;28319;48.116;10.818;2023-04-24T15:50:11;1.63;;;1.40;;
41984;SDS011;28319;48.116;10.818;2023-04-24T15:55:15;0.80;;;0.80;;
41984;SDS011;28319;48.116;10.818;2023-04-24T16:00:17;1.37;;;0.90;;
41984;SDS011;28319;48.116;10.818;2023-04-24T16:05:21;2.03;;;0.80;;
41984;SDS011;28319;48.116;10.818;2023-04-24T16:10:23;1.20;;;0.90;;
41984;SDS011;28319;48.116;10.818;2023-04-24T16:15:25;1.13;;;0.90;;
41984;SDS011;28319;48.116;10.818;2023-04-24T16:20:29;0.83;;;0.83;;
41984;SDS011;28319;48.116;10.818;2023-04-24T16:25:31;0.87;;;0.87;;
41984;SDS011;28319;48.116;10.818;2023-04-24T16:30:33;0.93;;;0.93;;
41984;SDS011;28319;48.116;10.818;2023-04-24T16:35:37;1.13;;;1.03;;
41984;SDS011;28319;48.116;10.818;2023-04-24T16:40:39;1.10;;;0.70;;
41984;SDS011;28319;48.116;10.818;2023-04-24T16:45:42;1.93;;;1.83;;
41984;SDS011;28319;48.116;10.818;2023-04-24T16:50:45;2.63;;;1.77;;
41984;SDS011;28319;48.116;10.818;2023-04-24T16:55:47;0.80;;;0.80;;
41984;SDS011;28319;48.116;10.818;2023-04-24T17:00:49;1.10;;;1.10;;
41984;SDS011;28319;48.116;10.818;2023-04-24T17:05:52;1.97;;;0.90;;
41984;SDS011;28319;48.116;10.818;2023-04-24T17:10:54;2.30;;;1.33;;
41984;SDS011;28319;48.116;10.818;2023-04-24T17:15:56;0.90;;;0.83;;
41984;SDS011;28319;48.116;10.818;2023-04-24T17:21:00;1.03;;;1.03;;
41984;SDS011;28319;48.116;10.818;2023-04-24T17:26:02;1.47;;;1.37;;
41984;SDS011;28319;48.116;10.818;2023-04-24T17:31:04;1.30;;;1.20;;
41984;SDS011;28319;48.116;10.818;2023-04-24T17:36:08;3.83;;;1.90;;
41984;SDS011;28319;48.116;10.818;2023-04-24T17:41:10;1.00;;;1.00;;
41984;SDS011;28319;48.116;10.818;2023-04-24T17:46:15;1.60;;;1.50;;
41984;SDS011;28319;48.116;10.818;2023-04-24T17:51:19;1.87;;;1.67;;
41984;SDS011;28319;48.116;10.818;2023-04-24T17:56:21;2.17;;;1.93;;
41984;SDS011;28319;48.116;10.818;2023-04-24T18:01:24;1.60;;;1.50;;
41984;SDS011;28319;48.116;10.818;2023-04-24T18:06:29;2.73;;;1.97;;
41984;SDS011;28319;48.116;10.818;2023-04-24T18:11:31;1.90;;;1.73;;
41984;SDS011;28319;48.116;10.818;2023-04-24T18:16:33;8.23;;;6.10;;
41984;SDS011;28319;48.116;10.818;2023-04-24T18:21:37;1.90;;;1.80;;
41984;SDS011;28319;48.116;10.818;2023-04-24T18:26:39;3.03;;;1.43;;
41984;SDS011;28319;48.116;10.818;2023-04-24T18:31:41;1.43;;;1.43;;
41984;SDS011;28319;48.116;10.818;2023-04-24T18:36:44;1.37;;;1.30;;
41984;SDS011;28319;48.116;10.818;2023-04-24T18:41:46;1.37;;;1.27;;
41984;SDS011;28319;48.116;10.818;2023-04-24T18:46:48;3.93;;;1.40;;
41984;SDS011;28319;48.116;10.818;2023-04-24T18:51:52;1.60;;;1.50;;
41984;SDS011;28319;48.116;10.818;2023-04-24T18:56:54;1.47;;;1.37;;
41984;SDS011;28319;48.116;10.818;2023-04-24T19:01:56;3.57;;;2.67;;
41984;SDS011;28319;48.116;10.818;2023-04-24T19:07:00;1.50;;;1.43;;
41984;SDS011;28319;48.116;10.818;2023-04-24T19:12:02;1.70;;;1.60;;
41984;SDS011;28319;48.116;10.818;2023-04-24T19:17:05;1.63;;;1.53;;
41984;SDS011;28319;48.116;10.818;2023-04-24T19:22:10;2.30;;;1.83;;
41984;SDS011;28319;48.116;10.818;2023-04-24T19:27:12;3.10;;;1.90;;
41984;SDS011;28319;48.116;10.818;2023-04-24T19:32:14;5.57;;;3.97;;
41984;SDS011;28319;48.116;10.818;2023-04-24T19:37:17;2.10;;;1.90;;
41984;SDS011;28319;48.116;10.818;2023-04-24T19:42:19;1.80;;;1.70;;
41984;SDS011;28319;48.116;10.818;2023-04-24T19:47:21;2.10;;;1.80;;
41984;SDS011;28319;48.116;10.818;2023-04-24T19:52:25;1.53;;;1.50;;
41984;SDS011;28319;48.116;10.818;2023-04-24T19:57:27;1.53;;;1.37;;
41984;SDS011;28319;48.116;10.818;2023-04-24T20:02:29;3.33;;;1.60;;
41984;SDS011;28319;48.116;10.818;2023-04-24T20:07:33;2.13;;;2.03;;
41984;SDS011;28319;48.116;10.818;2023-04-24T20:12:35;1.70;;;1.60;;
41984;SDS011;28319;48.116;10.818;2023-04-24T20:17:37;1.87;;;1.77;;
41984;SDS011;28319;48.116;10.818;2023-04-24T20:22:41;2.90;;;1.80;;
41984;SDS011;28319;48.116;10.818;2023-04-24T20:27:43;1.90;;;1.70;;
41984;SDS011;28319;48.116;10.818;2023-04-24T20:32:45;2.20;;;1.60;;
41984;SDS011;28319;48.116;10.818;2023-04-24T20:37:49;2.73;;;1.63;;
41984;SDS011;28319;48.116;10.818;2023-04-24T20:42:52;1.73;;;1.60;;
41984;SDS011;28319;48.116;10.818;2023-04-24T20:47:54;2.90;;;1.60;;
41984;SDS011;28319;48.116;10.818;2023-04-24T20:52:58;2.13;;;1.80;;
41984;SDS011;28319;48.116;10.818;2023-04-24T20:58:00;1.80;;;1.63;;
41984;SDS011;28319;48.116;10.818;2023-04-24T21:03:02;2.57;;;1.70;;
41984;SDS011;28319;48.116;10.818;2023-04-24T21:08:05;2.77;;;2.17;;
41984;SDS011;28319;48.116;10.818;2023-04-24T21:13:07;3.50;;;3.10;;
41984;SDS011;28319;48.116;10.818;2023-04-24T21:18:09;4.47;;;2.70;;
41984;SDS011;28319;48.116;10.818;2023-04-24T21:23:13;7.00;;;4.50;;
41984;SDS011;28319;48.116;10.818;2023-04-24T21:28:15;10.27;;;6.00;;
41984;SDS011;28319;48.116;10.818;2023-04-24T21:33:17;6.77;;;4.20;;
41984;SDS011;28319;48.116;10.818;2023-04-24T21:38:21;6.40;;;4.10;;
41984;SDS011;28319;48.116;10.818;2023-04-24T21:43:24;3.63;;;3.03;;
41984;SDS011;28319;48.116;10.818;2023-04-24T21:48:26;5.47;;;4.77;;
41984;SDS011;28319;48.116;10.818;2023-04-24T21:53:29;4.97;;;3.80;;
41984;SDS011;28319;48.116;10.818;2023-04-24T21:58:31;5.03;;;3.40;;
41984;SDS011;28319;48.116;10.818;2023-04-24T22:03:34;5.13;;;3.90;;
41984;SDS011;28319;48.116;10.818;2023-04-24T22:08:37;3.37;;;2.47;;
41984;SDS011;28319;48.116;10.818;2023-04-24T22:13:40;2.63;;;2.30;;
41984;SDS011;28319;48.116;10.818;2023-04-24T22:18:42;2.90;;;2.70;;
41984;SDS011;28319;48.116;10.818;2023-04-24T22:23:46;3.67;;;2.73;;
41984;SDS011;28319;48.116;10.818;2023-04-24T22:28:48;4.10;;;2.90;;
41984;SDS011;28319;48.116;10.818;2023-04-24T22:33:50;3.40;;;3.10;;
41984;SDS011;28319;48.116;10.818;2023-04-24T22:38:53;3.90;;;2.30;;
41984;SDS011;28319;48.116;10.818;2023-04-24T22:43:56;2.60;;;2.40;;
41984;SDS011;28319;48.116;10.818;2023-04-24T22:48:58;1.90;;;1.80;;
41984;SDS011;28319;48.116;10.818;2023-04-24T22:54:02;2.20;;;1.93;;
41984;SDS011;28319;48.116;10.818;2023-04-24T22:59:04;2.17;;;1.97;;
41984;SDS011;28319;48.116;10.818;2023-04-24T23:04:07;2.67;;;1.90;;
41984;SDS011;28319;48.116;10.818;2023-04-24T23:09:10;2.20;;;2.00;;
41984;SDS011;28319;48.116;10.818;2023-04-24T23:14:12;2.13;;;1.93;;
41984;SDS011;28319;48.116;10.818;2023-04-24T23:19:15;1.77;;;1.67;;
41984;SDS011;28319;48.116;10.818;2023-04-24T23:24:19;1.90;;;1.80;;
41984;SDS011;28319;48.116;10.818;2023-04-24T23:29:21;3.00;;;2.00;;
41984;SDS011;28319;48.116;10.818;2023-04-24T23:34:25;3.03;;;1.90;;
41984;SDS011;28319;48.116;10.818;2023-04-24T23:39:28;1.77;;;1.67;;
41984;SDS011;28319;48.116;10.818;2023-04-24T23:44:30;1.63;;;1.53;;
41984;SDS011;28319;48.116;10.818;2023-04-24T23:49:32;2.03;;;1.60;;
41984;SDS011;28319;48.116;10.818;2023-04-24T23:54:36;2.83;;;1.90;;
41984;SDS011;28319;48.116;10.818;2023-04-24T23:59:38;1.80;;;1.70;;
